Terminal Aerodrome Forecast
Issued by NWS

Home | Current Version | Previous Version | Text Only | Print | Product List | Glossary Off
Versions: 1 2 3 4 5 6 7 8 9 10 11 12 13 14 15 16 17 18 19 20 21 22 23 24 25 26 27 28 29

000
FTUS45 KGGW 280000 AAB
TAFGDV
TAF AMD
KGDV 280045Z 2801/2824 VRB25G45KT 2SM TSRAGR OVC025CB
     FM280200 28022KT 6SM -TSRA OVC030CB
     FM280600 26020KT P6SM VCSH BKN030
     FM281600 26035G50KT 6SM -RA BKN015 OVC025
      AMD LTD TO CLD VIS AND WIND=

USA.gov is the U.S. government's official web portal to all federal, state and local government web resources and services.